Time;durP1;ratioP1;P1;durP2;ratioP2;P2;SDS_P1;SDS_P2;PMS_P1;PMS_P2;Temp;Humidity;BMP_temperature;BMP_pressure;BME280_temperature;BME280_humidity;BME280_pressure;Samples;Min_cycle;Max_cycle;Signal;HPM_P1;HPM_P2
2022/03/01 00:01:59;;;;;;;107.83;40.37;;;-1.20;99.90;;;;;;5034548;28;20252;-85
2022/03/01 00:04:25;;;;;;;105.20;38.30;;;;;;;;;;5016499;28;20821;-85
2022/03/01 00:06:51;;;;;;;95.73;36.33;;;-2.10;99.90;;;;;;5016643;28;20744;-86
2022/03/01 00:09:16;;;;;;;95.60;36.33;;;0.10;99.90;;;;;;5016595;28;20192;-85
2022/03/01 00:11:42;;;;;;;106.03;40.67;;;-1.50;99.90;;;;;;5016655;28;20216;-85
2022/03/01 00:14:09;;;;;;;102.63;37.93;;;-0.50;99.90;;;;;;5016380;28;20199;-88
2022/03/01 00:16:35;;;;;;;90.53;33.87;;;-2.00;99.90;;;;;;5000077;28;20239;-85
2022/03/01 00:19:01;;;;;;;85.57;33.13;;;-2.10;99.90;;;;;;5033092;28;20184;-86
2022/03/01 00:21:28;;;;;;;78.10;31.83;;;-0.90;99.90;;;;;;5016407;28;20189;-85
2022/03/01 00:23:55;;;;;;;88.23;33.20;;;-0.70;99.90;;;;;;5016522;28;20247;-86
2022/03/01 00:26:21;;;;;;;85.97;33.53;;;-2.10;99.90;;;;;;5016244;28;20186;-85
2022/03/01 00:28:46;;;;;;;81.37;31.70;;;-0.30;99.90;;;;;;5016221;28;20778;-85
2022/03/01 00:31:12;;;;;;;82.30;31.63;;;-2.20;99.90;;;;;;5017710;28;20189;-86
2022/03/01 00:33:38;;;;;;;75.47;30.47;;;-2.20;99.90;;;;;;4999866;28;20177;-86
2022/03/01 00:36:04;;;;;;;78.30;30.73;;;-1.00;99.90;;;;;;5033848;28;20251;-86
2022/03/01 00:38:30;;;;;;;76.00;29.93;;;-1.70;99.90;;;;;;5016031;28;20182;-86
2022/03/01 00:40:56;;;;;;;81.23;31.53;;;-2.30;99.90;;;;;;5032935;28;20185;-86
2022/03/01 00:43:22;;;;;;;71.50;29.60;;;-2.30;99.90;;;;;;5015941;28;20211;-86
2022/03/01 00:45:49;;;;;;;74.43;28.40;;;-0.40;99.90;;;;;;5033594;28;20285;-86
2022/03/01 00:48:15;;;;;;;65.90;27.53;;;-0.80;99.90;;;;;;5033611;28;20179;-86
2022/03/01 00:50:41;;;;;;;68.43;26.80;;;-2.00;99.90;;;;;;5033554;28;20168;-86
2022/03/01 00:53:07;;;;;;;70.07;27.23;;;;;;;;;;5033626;28;20180;-86
2022/03/01 00:55:33;;;;;;;70.83;26.40;;;-2.40;99.90;;;;;;5033780;28;20176;-86
2022/03/01 00:58:00;;;;;;;68.57;26.00;;;-0.40;99.90;;;;;;5016222;28;20283;-86
2022/03/01 01:00:26;;;;;;;61.87;25.07;;;;;;;;;;5015604;28;20184;-86
2022/03/01 01:02:51;;;;;;;63.63;25.53;;;-2.50;99.90;;;;;;5015808;28;20187;-86
2022/03/01 01:05:17;;;;;;;63.63;25.53;;;-0.50;99.90;;;;;;5021341;28;20184;-86
2022/03/01 01:07:43;;;;;;;56.20;24.27;;;0.60;99.90;;;;;;5003514;28;20226;-86
2022/03/01 01:10:09;;;;;;;56.87;22.97;;;-2.40;99.90;;;;;;5033573;28;20256;-86
2022/03/01 01:12:35;;;;;;;54.10;22.70;;;-2.50;99.90;;;;;;5032035;28;20707;-86
2022/03/01 01:15:02;;;;;;;54.27;24.77;;;-0.20;99.90;;;;;;5032345;28;20641;-86
2022/03/01 01:17:28;;;;;;;56.87;22.53;;;-2.50;99.90;;;;;;5033124;28;20672;-86
2022/03/01 01:19:54;;;;;;;53.57;21.80;;;-2.50;99.90;;;;;;5015925;28;20187;-86
2022/03/01 01:25:04;;;;;;;52.27;21.23;;;-2.50;99.90;;;;;;5033568;28;20180;-86
2022/03/01 01:27:30;;;;;;;40.70;18.43;;;-2.50;99.90;;;;;;5031834;28;20225;-86
2022/03/01 01:29:56;;;;;;;40.63;17.53;;;-2.50;99.90;;;;;;5033494;28;20187;-85
2022/03/01 01:32:22;;;;;;;47.93;19.97;;;-2.40;99.90;;;;;;5032012;28;20177;-86
2022/03/01 01:34:48;;;;;;;44.57;18.93;;;-1.40;99.90;;;;;;5033351;28;20632;-85
2022/03/01 01:37:13;;;;;;;40.57;17.10;;;-2.50;99.90;;;;;;5015377;28;20658;-86
2022/03/01 01:39:39;;;;;;;36.87;17.30;;;-0.20;99.90;;;;;;4998933;28;20216;-86
2022/03/01 01:42:05;;;;;;;39.00;16.90;;;-1.00;99.90;;;;;;5015400;28;20222;-86
2022/03/01 01:44:32;;;;;;;43.43;17.40;;;-2.60;99.90;;;;;;5031848;28;20578;-86
2022/03/01 01:46:58;;;;;;;44.00;19.00;;;-0.20;99.90;;;;;;5015176;28;20188;-86
2022/03/01 01:49:23;;;;;;;44.00;18.00;;;-2.50;99.90;;;;;;5031478;28;20298;-86
2022/03/01 01:51:49;;;;;;;41.27;16.57;;;-1.00;99.90;;;;;;5033085;28;20181;-86
2022/03/01 01:54:15;;;;;;;35.97;15.00;;;-0.60;99.90;;;;;;5031839;28;20644;-86
2022/03/01 01:56:41;;;;;;;43.57;18.67;;;-0.20;99.90;;;;;;5015684;28;20216;-85
2022/03/01 01:59:06;;;;;;;42.10;18.17;;;-2.70;99.90;;;;;;5019754;28;20181;-85
2022/03/01 02:01:32;;;;;;;46.30;16.87;;;-0.80;99.90;;;;;;5019576;28;20184;-85
2022/03/01 02:03:59;;;;;;;45.07;17.97;;;-0.60;99.90;;;;;;5019235;28;20194;-85
2022/03/01 02:06:25;;;;;;;39.77;17.70;;;-0.20;99.90;;;;;;5018837;28;20393;-85
2022/03/01 02:08:51;;;;;;;35.60;16.73;;;;;;;;;;5019072;28;20187;-84
2022/03/01 02:11:17;;;;;;;48.77;17.07;;;-2.70;99.90;;;;;;5035462;28;20267;-85
2022/03/01 02:13:43;;;;;;;36.17;15.67;;;-1.20;99.90;;;;;;5019169;28;20265;-86
2022/03/01 02:16:10;;;;;;;33.70;16.80;;;-0.60;99.90;;;;;;5035652;28;20677;-84
2022/03/01 02:18:36;;;;;;;40.07;16.80;;;;;;;;;;5036018;28;20180;-85
2022/03/01 02:21:02;;;;;;;39.33;16.47;;;-2.70;99.90;;;;;;5018805;28;20180;-85
2022/03/01 02:23:28;;;;;;;37.13;16.40;;;-0.80;99.90;;;;;;5018635;28;20527;-85
2022/03/01 02:25:54;;;;;;;41.33;17.27;;;-2.80;99.90;;;;;;5018798;28;20680;-85
2022/03/01 02:28:19;;;;;;;40.07;17.67;;;-2.80;99.90;;;;;;5037674;28;20763;-84
2022/03/01 02:30:45;;;;;;;40.00;16.70;;;-2.80;99.90;;;;;;5037458;28;20178;-85
2022/03/01 02:33:11;;;;;;;45.03;15.57;;;-2.50;99.90;;;;;;5035019;28;20209;-84
2022/03/01 02:35:37;;;;;;;30.33;14.97;;;-2.80;99.90;;;;;;5035266;28;20607;-85
2022/03/01 02:38:03;;;;;;;34.37;16.70;;;-2.30;99.90;;;;;;5018592;28;20184;-85
2022/03/01 02:40:29;;;;;;;32.30;14.73;;;-1.70;99.90;;;;;;5018193;28;20182;-86
2022/03/01 02:42:55;;;;;;;39.20;18.23;;;-2.80;99.90;;;;;;5034734;28;20184;-85
2022/03/01 02:45:21;;;;;;;50.50;16.87;;;-1.10;99.90;;;;;;5036377;28;20191;-85
2022/03/01 02:47:47;;;;;;;47.50;19.83;;;;;;;;;;5035704;28;20182;-85
2022/03/01 02:50:14;;;;;;;37.47;17.20;;;-2.90;99.90;;;;;;5036871;28;20207;-85
2022/03/01 02:52:40;;;;;;;36.50;17.07;;;-3.00;99.90;;;;;;5037836;28;20181;-85
2022/03/01 02:55:07;;;;;;;34.90;14.93;;;-0.80;99.90;;;;;;5036051;28;20317;-85
2022/03/01 02:57:32;;;;;;;32.17;14.33;;;-2.90;99.90;;;;;;5017897;28;20709;-85
2022/03/01 02:59:58;;;;;;;29.60;13.50;;;-0.60;99.90;;;;;;5019743;28;20181;-84
2022/03/01 03:02:23;;;;;;;31.30;14.27;;;-0.40;99.90;;;;;;5019609;28;20710;-85
2022/03/01 03:04:50;;;;;;;32.73;15.10;;;-2.30;99.90;;;;;;5017841;28;20181;-85
2022/03/01 03:07:16;;;;;;;33.83;15.90;;;-2.90;99.90;;;;;;5018026;28;20285;-86
2022/03/01 03:09:45;;;;;;;38.23;16.50;;;-3.00;99.90;;;;;;5016670;28;20208;-86
2022/03/01 03:12:11;;;;;;;31.63;15.37;;;;;;;;;;5017804;28;20184;-86
2022/03/01 03:14:36;;;;;;;36.80;15.10;;;-3.00;99.90;;;;;;5017808;28;20670;-86
2022/03/01 03:17:03;;;;;;;31.13;13.60;;;-0.50;99.90;;;;;;5017896;28;20204;-86
2022/03/01 03:19:29;;;;;;;32.80;13.53;;;;;;;;;;5017444;28;20240;-86
2022/03/01 03:21:55;;;;;;;32.90;14.03;;;-3.00;99.90;;;;;;5017842;28;20190;-85
2022/03/01 03:24:20;;;;;;;35.10;14.67;;;-3.00;99.90;;;;;;5035087;28;20180;-85
2022/03/01 03:26:46;;;;;;;33.43;15.57;;;-0.80;99.90;;;;;;5017206;28;20189;-85
2022/03/01 03:29:12;;;;;;;41.17;17.03;;;-1.10;99.90;;;;;;5034567;28;20173;-85
2022/03/01 03:31:40;;;;;;;37.90;15.90;;;-3.10;99.90;;;;;;5017049;28;20181;-86
2022/03/01 03:34:08;;;;;;;36.30;16.80;;;-0.40;99.90;;;;;;5035301;28;20280;-86
2022/03/01 03:36:37;;;;;;;35.97;16.77;;;-0.50;99.90;;;;;;5035029;28;20545;-84
2022/03/01 03:39:05;;;;;;;38.80;15.50;;;-0.20;99.90;;;;;;5031946;28;20278;-84
2022/03/01 03:41:30;;;;;;;37.70;15.73;;;-0.50;99.90;;;;;;5032092;28;20191;-85
2022/03/01 03:43:56;;;;;;;29.90;14.57;;;-3.20;99.90;;;;;;5033156;28;20252;-83
2022/03/01 03:46:22;;;;;;;34.07;15.50;;;-2.70;99.90;;;;;;5033504;28;20221;-82
2022/03/01 03:48:48;;;;;;;29.00;15.13;;;-3.20;99.90;;;;;;5030062;28;20682;-84
2022/03/01 03:51:14;;;;;;;30.70;16.20;;;-3.20;99.90;;;;;;5034049;28;20188;-85
2022/03/01 03:53:41;;;;;;;33.70;16.20;;;-1.20;99.90;;;;;;5034961;28;20174;-86
2022/03/01 03:56:07;;;;;;;36.00;15.77;;;-0.60;99.90;;;;;;5017057;28;20219;-85
2022/03/01 03:58:33;;;;;;;39.97;15.90;;;;;;;;;;5016965;28;20267;-87
2022/03/01 04:00:58;;;;;;;37.60;16.07;;;-3.30;99.90;;;;;;5034792;28;20237;-85
2022/03/01 04:03:24;;;;;;;31.33;15.73;;;-3.30;99.90;;;;;;5034889;28;20178;-85
2022/03/01 04:05:50;;;;;;;32.10;15.03;;;-1.10;99.90;;;;;;5033479;28;20213;-86
2022/03/01 04:08:16;;;;;;;32.50;15.23;;;-3.40;99.90;;;;;;5034763;28;20181;-86
2022/03/01 04:10:43;;;;;;;36.23;16.03;;;-1.10;99.90;;;;;;5032952;28;20244;-84
2022/03/01 04:13:09;;;;;;;31.30;14.93;;;-2.50;99.90;;;;;;5033242;28;20240;-86
2022/03/01 04:15:35;;;;;;;37.73;17.07;;;-0.90;99.90;;;;;;5034312;28;20268;-85
2022/03/01 04:18:01;;;;;;;37.67;17.80;;;-3.70;99.90;;;;;;5016614;28;20690;-86
2022/03/01 04:20:27;;;;;;;33.93;17.37;;;-1.70;99.90;;;;;;5016322;28;20188;-86
2022/03/01 04:22:53;;;;;;;43.20;18.00;;;-1.30;99.90;;;;;;5013296;28;20646;-86
2022/03/01 04:25:19;;;;;;;39.83;16.90;;;;;;;;;;5027715;28;20179;-85
2022/03/01 04:27:44;;;;;;;42.77;19.30;;;-3.40;99.90;;;;;;5012984;28;20705;-86
2022/03/01 04:30:15;;;;;;;37.37;17.47;;;-1.60;99.90;;;;;;5022690;28;20268;-86
2022/03/01 04:32:41;;;;;;;35.47;15.70;;;-3.40;99.90;;;;;;5033213;28;20166;-86
2022/03/01 04:35:08;;;;;;;34.67;16.33;;;-3.40;99.90;;;;;;5016459;28;20189;-88
2022/03/01 04:37:36;;;;;;;35.60;17.50;;;-3.50;99.90;;;;;;5034799;28;20206;-85
2022/03/01 04:40:06;;;;;;;39.43;16.80;;;-3.50;99.90;;;;;;5033067;28;20624;-85
2022/03/01 04:42:32;;;;;;;33.20;16.03;;;;;;;;;;5033026;28;20194;-87
2022/03/01 04:44:58;;;;;;;31.17;14.70;;;;;;;;;;5032355;28;20255;-86
2022/03/01 04:47:24;;;;;;;36.70;16.30;;;-3.50;99.90;;;;;;5015140;28;20192;-85
2022/03/01 04:49:49;;;;;;;38.67;15.93;;;0.00;99.90;;;;;;5032471;28;20181;-85
2022/03/01 04:52:15;;;;;;;35.13;15.77;;;-3.70;99.90;;;;;;5016158;28;20634;-86
2022/03/01 04:54:41;;;;;;;31.80;16.13;;;-3.70;99.90;;;;;;5016026;28;20262;-86
2022/03/01 04:57:07;;;;;;;31.50;15.50;;;;;;;;;;5032393;28;20209;-85
2022/03/01 04:59:32;;;;;;;38.50;16.07;;;-3.60;99.90;;;;;;5032402;28;20176;-86
2022/03/01 05:01:58;;;;;;;38.53;16.90;;;-3.70;99.90;;;;;;5032506;28;20181;-85
2022/03/01 05:04:24;;;;;;;39.07;15.77;;;-1.40;99.90;;;;;;5032541;28;20180;-85
2022/03/01 05:06:50;;;;;;;33.93;15.20;;;-2.30;99.90;;;;;;5015643;28;20638;-85
2022/03/01 05:09:15;;;;;;;35.30;16.63;;;-3.50;99.90;;;;;;4999519;28;20176;-85
2022/03/01 05:11:41;;;;;;;33.90;15.80;;;-1.60;99.90;;;;;;5015776;28;20201;-87
2022/03/01 05:14:07;;;;;;;34.60;15.87;;;-2.10;99.90;;;;;;5016004;28;20195;-85
2022/03/01 05:16:34;;;;;;;37.17;14.43;;;;;;;;;;5015627;28;20266;-85
2022/03/01 05:18:59;;;;;;;28.00;14.33;;;-3.70;99.90;;;;;;5015096;28;20630;-85
2022/03/01 05:21:26;;;;;;;31.00;14.30;;;-3.70;99.90;;;;;;5015714;28;20193;-85
2022/03/01 05:23:51;;;;;;;29.03;13.87;;;-3.70;99.90;;;;;;5033236;28;20177;-85
2022/03/01 05:26:17;;;;;;;31.47;13.67;;;-1.40;99.90;;;;;;5015658;28;20192;-85
2022/03/01 05:28:44;;;;;;;30.70;13.53;;;-2.50;99.90;;;;;;5023656;28;20764;-86
2022/03/01 05:31:10;;;;;;;25.57;12.97;;;;;;;;;;5021794;28;20264;-85
2022/03/01 05:33:36;;;;;;;32.10;14.40;;;-3.70;99.90;;;;;;5009280;28;20270;-85
2022/03/01 05:36:03;;;;;;;27.50;12.60;;;-2.20;99.90;;;;;;5020261;28;20214;-86
2022/03/01 05:38:29;;;;;;;31.67;13.67;;;-3.70;99.90;;;;;;5000013;28;20174;-85
2022/03/01 05:40:55;;;;;;;34.40;13.30;;;;;;;;;;5017252;28;20270;-85
2022/03/01 05:43:21;;;;;;;32.57;13.93;;;-3.70;99.90;;;;;;5016430;28;20276;-86
2022/03/01 05:45:47;;;;;;;34.03;12.90;;;-3.10;99.90;;;;;;5021846;28;20203;-92
2022/03/01 05:48:13;;;;;;;31.53;14.90;;;-3.70;99.90;;;;;;5033651;28;20165;-88
2022/03/01 05:50:41;;;;;;;28.33;13.03;;;-3.40;99.90;;;;;;5027215;28;20189;-86
2022/03/01 05:53:07;;;;;;;28.97;14.77;;;-3.60;99.90;;;;;;5059854;28;20192;-88
2022/03/01 05:55:33;;;;;;;38.60;16.93;;;-1.70;99.90;;;;;;5043141;28;20197;-86
2022/03/01 05:57:59;;;;;;;33.33;14.77;;;-3.50;99.90;;;;;;5024374;28;20192;-93
2022/03/01 06:00:24;;;;;;;44.67;19.57;;;-3.50;99.90;;;;;;5040801;28;20211;-90
2022/03/01 06:02:50;;;;;;;58.77;21.07;;;-3.50;99.90;;;;;;5053063;28;20206;-86
2022/03/01 06:05:17;;;;;;;60.17;25.70;;;-2.80;99.90;;;;;;5056712;28;20183;-92
2022/03/01 06:07:43;;;;;;;68.47;26.83;;;-3.30;99.90;;;;;;5040555;28;20235;-92
2022/03/01 06:10:09;;;;;;;74.30;29.03;;;-1.80;99.90;;;;;;5057672;28;20184;-92
2022/03/01 06:12:35;;;;;;;74.13;29.63;;;-1.30;99.90;;;;;;5041339;28;20260;-92
2022/03/01 06:15:02;;;;;;;82.53;30.53;;;-0.90;99.90;;;;;;5058070;28;20179;-91
2022/03/01 06:17:27;;;;;;;87.17;32.73;;;-0.90;99.90;;;;;;5058432;28;20209;-90
2022/03/01 06:19:53;;;;;;;92.00;30.97;;;-3.00;99.90;;;;;;5056922;28;20239;-91
2022/03/01 06:22:20;;;;;;;95.90;32.13;;;-3.00;99.90;;;;;;5023207;28;20643;-85
2022/03/01 06:24:46;;;;;;;130.00;42.83;;;-3.00;99.90;;;;;;5033218;28;20361;-89
2022/03/01 06:27:13;;;;;;;84.13;32.20;;;-2.00;99.90;;;;;;5015235;28;20224;-85
2022/03/01 06:29:38;;;;;;;92.23;33.93;;;-2.80;99.90;;;;;;5015309;28;20191;-85
2022/03/01 06:32:05;;;;;;;95.83;35.77;;;-0.20;99.90;;;;;;5015469;28;20267;-84
2022/03/01 06:34:32;;;;;;;89.37;32.20;;;-2.70;99.90;;;;;;5017886;28;20239;-83
2022/03/01 06:36:58;;;;;;;86.10;33.50;;;-2.40;99.90;;;;;;5013300;28;20280;-86
2022/03/01 06:39:24;;;;;;;75.53;31.23;;;-2.50;99.90;;;;;;5012219;28;20192;-84
2022/03/01 06:41:50;;;;;;;85.80;31.57;;;-1.70;99.90;;;;;;5028981;28;20197;-85
2022/03/01 06:44:17;;;;;;;64.23;24.37;;;0.10;99.90;;;;;;5036369;28;20548;-84
2022/03/01 06:46:43;;;;;;;66.00;26.37;;;-2.20;99.90;;;;;;5034146;28;20660;-85
2022/03/01 06:49:09;;;;;;;61.93;25.47;;;0.00;99.90;;;;;;5028896;28;20247;-85
2022/03/01 06:51:35;;;;;;;51.47;21.63;;;-0.30;99.90;;;;;;5025261;28;20249;-88
2022/03/01 06:54:00;;;;;;;54.53;21.50;;;-2.00;99.90;;;;;;5012678;28;20183;-88
2022/03/01 06:56:27;;;;;;;60.87;23.00;;;-1.50;99.90;;;;;;5029734;28;20208;-86
2022/03/01 06:58:53;;;;;;;55.63;21.40;;;0.20;99.90;;;;;;5013036;28;20190;-85
2022/03/01 07:01:19;;;;;;;50.23;19.43;;;;;;;;;;5030020;28;20183;-85
2022/03/01 07:03:45;;;;;;;45.77;19.47;;;-1.80;99.90;;;;;;5029548;28;20679;-85
2022/03/01 07:06:11;;;;;;;38.63;18.17;;;-1.70;99.90;;;;;;4997522;28;20188;-89
2022/03/01 07:08:37;;;;;;;60.80;21.77;;;;;;;;;;5025031;28;20196;-87
2022/03/01 07:11:03;;;;;;;42.87;18.80;;;;;;;;;;5028980;28;20191;-87
2022/03/01 07:13:29;;;;;;;56.60;20.93;;;0.80;99.90;;;;;;5027447;28;20210;-86
2022/03/01 07:15:58;;;;;;;33.50;16.10;;;-0.90;99.90;;;;;;5011535;28;20767;-87
2022/03/01 07:18:24;;;;;;;40.33;16.80;;;0.50;99.90;;;;;;5030037;28;20188;-87
2022/03/01 07:20:49;;;;;;;107.17;40.20;;;-1.00;99.90;;;;;;5016747;28;20240;-88
2022/03/01 07:23:15;;;;;;;42.30;19.30;;;-0.10;99.90;;;;;;4990603;28;20195;-89
2022/03/01 07:25:41;;;;;;;34.83;15.10;;;1.20;99.90;;;;;;5016288;28;20569;-89
2022/03/01 07:28:07;;;;;;;28.33;13.93;;;-1.10;99.90;;;;;;4992196;28;20227;-88
2022/03/01 07:30:33;;;;;;;27.60;13.00;;;0.30;99.90;;;;;;4991065;28;20248;-89
2022/03/01 07:33:01;;;;;;;23.97;11.07;;;1.10;99.90;;;;;;5015955;28;20272;-88
2022/03/01 07:35:27;;;;;;;27.33;13.80;;;-1.00;99.90;;;;;;5020315;28;20522;-88
2022/03/01 07:37:53;;;;;;;29.67;14.50;;;-0.80;99.90;;;;;;5024893;28;20217;-87
2022/03/01 07:40:20;;;;;;;28.27;13.93;;;1.20;99.90;;;;;;5022306;28;20182;-87
2022/03/01 07:42:47;;;;;;;23.50;11.90;;;;;;;;;;5025233;28;20653;-89
2022/03/01 07:45:13;;;;;;;29.93;10.97;;;;;;;;;;5025023;28;20192;-91
2022/03/01 07:47:39;;;;;;;28.87;12.47;;;-0.50;99.90;;;;;;5025787;28;20335;-90
2022/03/01 07:50:11;;;;;;;55.97;16.87;;;0.00;99.90;;;;;;5008995;28;20193;-88
2022/03/01 07:52:39;;;;;;;43.20;14.63;;;-0.50;99.90;;;;;;5012120;28;20195;-91
2022/03/01 07:55:06;;;;;;;51.77;18.93;;;1.90;99.90;;;;;;5029765;28;20286;-88
2022/03/01 07:57:32;;;;;;;33.37;14.00;;;;;;;;;;5009237;28;20292;-88
2022/03/01 07:59:58;;;;;;;32.80;15.63;;;-0.20;99.90;;;;;;5025264;28;20196;-89
2022/03/01 08:02:24;;;;;;;29.43;13.70;;;0.00;99.90;;;;;;5010381;28;20198;-90
2022/03/01 08:04:49;;;;;;;38.67;15.10;;;2.60;99.90;;;;;;5017912;28;20194;-90
2022/03/01 08:07:15;;;;;;;32.03;14.17;;;0.80;99.90;;;;;;5034418;28;20203;-88
2022/03/01 08:09:41;;;;;;;26.23;11.37;;;;;;;;;;5007451;28;20850;-88
2022/03/01 08:12:08;;;;;;;25.60;11.53;;;0.10;99.90;;;;;;5009696;28;20200;-87
2022/03/01 08:14:35;;;;;;;35.77;15.97;;;0.20;99.90;;;;;;5014713;28;20196;-88
2022/03/01 08:17:02;;;;;;;25.57;12.20;;;0.50;99.90;;;;;;5025378;28;20245;-89
2022/03/01 08:19:28;;;;;;;30.30;11.90;;;;;;;;;;5013902;28;20191;-89
2022/03/01 08:21:54;;;;;;;22.37;11.53;;;0.60;99.90;;;;;;5012713;28;20246;-87
2022/03/01 08:24:20;;;;;;;24.53;10.27;;;1.90;99.90;;;;;;4989828;28;20185;-91
2022/03/01 08:26:46;;;;;;;29.53;11.83;;;2.10;99.90;;;;;;5017495;28;20219;-90
2022/03/01 08:29:12;;;;;;;20.63;9.33;;;1.50;99.90;;;;;;5025271;28;20211;-89
2022/03/01 08:31:41;;;;;;;37.00;13.10;;;1.60;99.90;;;;;;5007515;28;20187;-90
2022/03/01 08:34:07;;;;;;;25.80;11.03;;;1.50;99.90;;;;;;5025191;28;20195;-90
2022/03/01 08:36:33;;;;;;;18.10;9.37;;;;;;;;;;5027672;28;20230;-91
2022/03/01 08:38:59;;;;;;;17.67;8.50;;;;;;;;;;5032623;28;20188;-89
2022/03/01 08:41:25;;;;;;;25.17;10.10;;;1.10;99.90;;;;;;5034360;28;20230;-90
2022/03/01 08:43:51;;;;;;;17.17;10.00;;;3.50;99.90;;;;;;5033273;28;20180;-90
2022/03/01 08:46:17;;;;;;;25.73;9.43;;;1.30;99.90;;;;;;5015944;28;20219;-90
2022/03/01 08:48:44;;;;;;;14.27;7.37;;;1.30;99.90;;;;;;5018291;28;20651;-88
2022/03/01 08:51:10;;;;;;;15.67;6.97;;;1.40;99.90;;;;;;5036544;28;20626;-88
2022/03/01 08:53:37;;;;;;;15.97;7.90;;;;;;;;;;5017496;28;20183;-89
2022/03/01 08:56:02;;;;;;;17.77;8.13;;;1.60;99.90;;;;;;5017050;28;20307;-89
2022/03/01 08:58:28;;;;;;;17.73;8.20;;;1.70;99.90;;;;;;5016677;28;20254;-90
2022/03/01 09:00:54;;;;;;;19.57;8.00;;;3.10;99.90;;;;;;5032924;28;20185;-86
2022/03/01 09:03:20;;;;;;;21.30;10.20;;;3.50;99.90;;;;;;5033157;28;20191;-87
2022/03/01 09:05:45;;;;;;;19.17;7.97;;;3.60;99.90;;;;;;5015505;28;20185;-86
2022/03/01 09:08:13;;;;;;;15.27;6.90;;;2.40;99.90;;;;;;5032864;28;20182;-87
2022/03/01 09:10:42;;;;;;;18.37;8.03;;;2.00;98.70;;;;;;5015773;28;20192;-87
2022/03/01 09:13:08;;;;;;;10.93;6.13;;;2.10;93.70;;;;;;5019143;28;20174;-86
2022/03/01 09:15:34;;;;;;;15.47;6.03;;;;;;;;;;5018371;28;20602;-85
2022/03/01 09:18:05;;;;;;;14.90;5.77;;;2.20;96.20;;;;;;5036292;28;20307;-87
2022/03/01 09:20:32;;;;;;;13.30;7.00;;;2.20;96.10;;;;;;5032053;28;20175;-87
2022/03/01 09:22:58;;;;;;;16.00;6.57;;;4.20;96.50;;;;;;5032370;28;20215;-89
2022/03/01 09:25:24;;;;;;;11.80;5.73;;;2.50;95.40;;;;;;5037420;28;20271;-86
2022/03/01 09:27:50;;;;;;;10.30;5.03;;;3.00;94.30;;;;;;5017639;28;20720;-89
2022/03/01 09:30:16;;;;;;;14.00;6.67;;;2.60;94.30;;;;;;5015711;28;20236;-87
2022/03/01 09:32:43;;;;;;;18.07;8.77;;;2.60;94.30;;;;;;5016377;28;20647;-88
2022/03/01 09:35:10;;;;;;;20.03;9.10;;;4.00;94.10;;;;;;5034796;28;20307;-89
2022/03/01 09:37:37;;;;;;;12.70;5.83;;;2.90;92.80;;;;;;5016091;28;20223;-88
2022/03/01 09:40:05;;;;;;;11.20;5.30;;;3.00;88.30;;;;;;5033265;28;20181;-89
2022/03/01 09:42:31;;;;;;;7.17;4.50;;;3.00;82.80;;;;;;4999059;28;20252;-89
2022/03/01 09:45:03;;;;;;;9.27;5.70;;;2.90;78.30;;;;;;5033209;28;20184;-89
2022/03/01 09:47:29;;;;;;;11.20;5.30;;;;;;;;;;5015851;28;20622;-89
2022/03/01 09:49:55;;;;;;;9.77;4.10;;;;;;;;;;5031742;28;20201;-90
2022/03/01 09:52:22;;;;;;;10.60;4.80;;;;;;;;;;5031734;28;20192;-91
2022/03/01 09:54:51;;;;;;;15.93;6.60;;;2.80;77.50;;;;;;5015418;28;20648;-90
2022/03/01 09:57:18;;;;;;;12.37;6.30;;;3.00;79.40;;;;;;5015469;28;20252;-90
2022/03/01 09:59:47;;;;;;;12.97;5.97;;;3.30;83.00;;;;;;5032704;28;20244;-91
2022/03/01 10:02:16;;;;;;;13.47;6.50;;;;;;;;;;5015323;28;20180;-89
2022/03/01 10:04:58;;;;;;;11.50;6.07;;;3.20;77.20;;;;;;5032356;28;20269;-89
2022/03/01 10:07:25;;;;;;;10.70;5.80;;;3.20;77.50;;;;;;5016164;28;20289;-90
2022/03/01 10:09:51;;;;;;;24.33;10.80;;;3.20;81.20;;;;;;5015523;28;20179;-89
2022/03/01 10:12:28;;;;;;;18.27;8.37;;;3.40;82.50;;;;;;5014962;28;20195;-89
2022/03/01 10:15:04;;;;;;;9.30;5.07;;;5.00;82.70;;;;;;5015210;28;20572;-89
2022/03/01 10:17:48;;;;;;;15.17;5.03;;;3.40;75.80;;;;;;5015728;28;20306;-89
2022/03/01 10:20:18;;;;;;;10.87;5.30;;;3.60;80.20;;;;;;5035482;28;20200;-90
2022/03/01 10:22:52;;;;;;;10.90;6.00;;;3.70;74.50;;;;;;5019753;28;20183;-90
2022/03/01 10:25:22;;;;;;;11.60;5.70;;;3.70;75.10;;;;;;5019071;28;20175;-90
2022/03/01 10:27:52;;;;;;;11.13;5.70;;;3.80;71.30;;;;;;5021098;28;20256;-87
2022/03/01 10:30:36;;;;;;;12.47;5.20;;;3.80;73.20;;;;;;5025510;28;20177;-86
2022/03/01 10:33:11;;;;;;;15.50;5.80;;;4.00;72.60;;;;;;5026552;28;20240;-88
2022/03/01 10:35:39;;;;;;;15.40;5.80;;;4.20;67.50;;;;;;5030338;28;20206;-87
2022/03/01 10:38:06;;;;;;;10.03;5.77;;;4.10;65.90;;;;;;5028351;28;20221;-92
2022/03/01 10:40:33;;;;;;;12.47;7.17;;;3.80;68.00;;;;;;5015936;28;20208;-90
2022/03/01 10:42:59;;;;;;;8.80;5.03;;;;;;;;;;5015834;28;20176;-91
2022/03/01 10:45:36;;;;;;;9.97;5.07;;;3.80;66.60;;;;;;5015607;28;20204;-91
2022/03/01 10:48:05;;;;;;;10.70;5.87;;;4.30;67.10;;;;;;5016000;28;20205;-90
2022/03/01 10:50:31;;;;;;;8.70;4.43;;;;;;;;;;5015212;28;20204;-90
2022/03/01 10:52:57;;;;;;;7.97;4.43;;;;;;;;;;5015242;28;20602;-90
2022/03/01 10:55:32;;;;;;;9.77;4.40;;;4.40;62.20;;;;;;5015590;28;20189;-90
2022/03/01 10:58:02;;;;;;;9.43;5.13;;;4.40;63.40;;;;;;5015567;28;20235;-90
2022/03/01 11:00:30;;;;;;;8.23;4.40;;;4.90;64.50;;;;;;5015442;28;20263;-90
2022/03/01 11:02:56;;;;;;;9.63;5.37;;;;;;;;;;5015147;28;20187;-90
2022/03/01 11:05:22;;;;;;;9.17;4.67;;;;;;;;;;4999187;28;20188;-90
2022/03/01 11:07:52;;;;;;;9.63;4.67;;;4.70;61.00;;;;;;5014760;28;20188;-89
2022/03/01 11:10:21;;;;;;;8.73;4.93;;;4.90;64.10;;;;;;5016486;28;20698;-89
2022/03/01 11:12:50;;;;;;;14.27;6.83;;;4.80;61.60;;;;;;5017127;28;20198;-89
2022/03/01 11:16:00;;;;;;;10.80;5.63;;;4.80;66.40;;;;;;5015341;28;20620;-91
2022/03/01 11:19:03;;;;;;;12.47;6.40;;;4.50;63.60;;;;;;5006740;28;20216;-90
2022/03/01 11:21:30;;;;;;;16.70;7.50;;;4.90;63.60;;;;;;5014352;28;20216;-90
2022/03/01 11:23:58;;;;;;;10.23;5.03;;;4.80;60.50;;;;;;5016185;28;20175;-91
2022/03/01 11:26:35;;;;;;;12.63;4.30;;;4.80;62.30;;;;;;5015515;28;20181;-90
2022/03/01 11:29:01;;;;;;;8.73;4.30;;;;;;;;;;5013891;28;20232;-90
2022/03/01 11:31:32;;;;;;;12.80;5.30;;;4.80;59.60;;;;;;5013588;28;20611;-91
2022/03/01 11:34:07;;;;;;;12.73;5.80;;;4.90;61.30;;;;;;5015807;28;20172;-90
2022/03/01 11:36:34;;;;;;;11.93;5.40;;;4.50;59.90;;;;;;5014130;28;20223;-91
2022/03/01 11:39:16;;;;;;;8.23;4.87;;;4.50;60.90;;;;;;5014169;28;20634;-90
2022/03/01 11:41:47;;;;;;;8.90;4.87;;;4.60;60.50;;;;;;5013948;28;20187;-91
2022/03/01 11:44:23;;;;;;;11.60;4.87;;;4.80;61.30;;;;;;5014322;28;20185;-90
2022/03/01 11:46:54;;;;;;;9.53;5.43;;;4.70;59.60;;;;;;5014522;28;20190;-93
2022/03/01 11:49:23;;;;;;;8.87;4.80;;;4.60;60.60;;;;;;5013436;28;20185;-92
2022/03/01 11:51:58;;;;;;;11.93;5.77;;;3.80;62.00;;;;;;5000051;28;20626;-92
2022/03/01 11:54:33;;;;;;;9.27;5.10;;;4.50;62.60;;;;;;4997935;28;20686;-89
2022/03/01 11:57:04;;;;;;;11.93;5.83;;;4.70;61.60;;;;;;5014768;28;20606;-89
2022/03/01 11:59:32;;;;;;;21.03;10.03;;;;;;;;;;5020555;28;20618;-87
2022/03/01 12:01:59;;;;;;;14.10;5.83;;;;;;;;;;5018694;28;20238;-86
2022/03/01 12:04:28;;;;;;;13.43;5.60;;;4.90;61.10;;;;;;5015613;28;20184;-86
2022/03/01 12:06:57;;;;;;;10.23;4.70;;;5.50;59.70;;;;;;5014156;28;20645;-86
2022/03/01 12:09:26;;;;;;;8.40;4.50;;;5.60;59.60;;;;;;5013661;28;20618;-90
2022/03/01 12:12:07;;;;;;;9.90;3.63;;;5.50;57.50;;;;;;5014061;28;20189;-87
2022/03/01 12:14:34;;;;;;;8.73;5.47;;;5.10;57.00;;;;;;5013624;28;20176;-89
2022/03/01 12:17:04;;;;;;;6.43;4.60;;;4.90;57.10;;;;;;5013593;28;20261;-89
2022/03/01 12:19:33;;;;;;;7.27;4.20;;;4.90;59.60;;;;;;5019556;28;20180;-89
2022/03/01 12:22:02;;;;;;;8.83;4.43;;;4.90;57.80;;;;;;5021036;28;20260;-88
2022/03/01 12:24:30;;;;;;;7.10;3.73;;;5.20;56.20;;;;;;5038160;28;20240;-88
2022/03/01 12:27:02;;;;;;;7.77;4.50;;;5.50;56.90;;;;;;5039866;28;20200;-88
2022/03/01 12:29:32;;;;;;;8.90;4.30;;;5.80;55.90;;;;;;5040560;28;20235;-89
2022/03/01 12:32:07;;;;;;;12.67;5.20;;;5.90;57.80;;;;;;5057838;28;20160;-89
2022/03/01 12:34:35;;;;;;;17.67;7.17;;;6.50;57.20;;;;;;5040571;28;20163;-90
2022/03/01 12:37:06;;;;;;;21.63;8.97;;;6.50;56.20;;;;;;5034515;28;20211;-90
2022/03/01 12:39:33;;;;;;;8.30;4.27;;;6.70;56.70;;;;;;5029037;28;20166;-89
2022/03/01 12:41:59;;;;;;;10.40;4.30;;;;;;;;;;5042879;28;20174;-89
2022/03/01 12:44:30;;;;;;;12.47;3.30;;;6.90;52.70;;;;;;5045555;28;20178;-91
2022/03/01 12:46:57;;;;;;;9.60;5.63;;;6.60;51.60;;;;;;5025345;28;20177;-92
2022/03/01 12:49:26;;;;;;;8.87;4.87;;;6.40;53.50;;;;;;5021413;28;20183;-91
2022/03/01 12:51:54;;;;;;;9.63;4.60;;;6.70;54.60;;;;;;5028261;28;20236;-90